Spokane International Airport
KGEG : now visible

Airfield :











YOU CAN JOIN US ON...

 
LOGIN :

Register | Disclaimer

   EN    FR    IT 

 









Legend :    VFR   Marginal VFR   IFR   Intensive IFR   Very Intensive IFR
Visi :
Ceiling :
>= 8 km
>= 3000ft
5 to 8 km
1000 to 3000 ft
1500m to 5 km
500 to 1000 ft
800 to 1500m
200 to 500 ft
< 800m
< 200 ft
Symbols :   Thunderstorms  Fog  Heavy snow  Heavy precipitations  Wind > 20 kt






- Airport Elevation : 2376 ft
- IATA code : GEG


KGEG - Spokane International

CURRENT METAR :
  • 110153Z 25010KT 10SM FEW220 29/04 A2988 RMK AO2 SLP104 ACSL DSNT NW T02940039

EXPIRED METARs :
  • 110053Z 21014KT 10SM FEW060 FEW150 FEW250 30/04 A2990 RMK AO2 PK WND 23029/0042 SLP110 ACSL DSNT NW T03000039
  • 102353Z 23016G21KT 10SM FEW070 FEW200 31/03 A2992 RMK AO2 PK WND 23026/2332 SLP115 T03060033 10311 20250 57024

TAF KGEG
Valid from the 11 at 02:00 until the 12 at 00:00 UTC


110202Z 1102/1124 23010KT P6SM SCT220
FM111200 19008KT P6SM BKN250
FM111900 22011G19KT P6SM BKN250
KZSE FIR / North America



MET'MAP, your aeronautical weather chart ! - Copyright ORBIFLY December 2007 - Disclaimer

ORBIFLY MET'MAP TEAM :

Programming & Development : Alexandra Zaïnal
Concept & original design : Baudouin d'Aumeries
Assistance for programming : Marc-Olivier Méhu
Technical & hardware support : Manuel Goepfert

Contact : metmap@orbifly.com




SOURCES & CREDITS :

   NOAA       Earth
Advisory